AAL2215 KDFW-KRDU
Flight info
| Callsign | AAL2215 |
|---|---|
| Flight time | 1h 57m |
| Altitude | 39000 |
| Route | TRYTN4 LOOSE MEM VXV KPASS ALDAN4 |
| Aircraft | B38M/M-SDE1FGHILORVWXY/HB1 |
Departure
| Time | 2026-05-06 21:40 |
|---|---|
| Airport | Dallas Fort Worth International Airport (KDFW) |
Arrival
| Time | 2026-05-06 23:38 |
|---|---|
| Airport | Raleigh-Durham International Airport (KRDU) |
| Time | Latitude | Longitude | Altitude | Speed | Heading |
|---|---|---|---|---|---|
| 2026-05-06 21:10 | 32.89935 | -97.03548 | 619 ft | 0 kts | 245° |
| 2026-05-06 21:23 | 32.89939 | -97.03538 | 601 ft | 3 kts | 245° |
| 2026-05-06 21:23 | 32.89949 | -97.03520 | 601 ft | 4 kts | 223° |
| 2026-05-06 21:23 | 32.89962 | -97.03506 | 601 ft | 4 kts | 165° |
| 2026-05-06 21:24 | 32.89981 | -97.03520 | 601 ft | 4 kts | 141° |
| 2026-05-06 21:24 | 32.89998 | -97.03535 | 601 ft | 4 kts | 144° |
| 2026-05-06 21:24 | 32.90019 | -97.03554 | 601 ft | 3 kts | 144° |
| 2026-05-06 21:24 | 32.90023 | -97.03557 | 600 ft | 0 kts | 144° |
| 2026-05-06 21:30 | 32.90022 | -97.03556 | 600 ft | 1 kts | 144° |
| 2026-05-06 21:30 | 32.90016 | -97.03551 | 601 ft | 3 kts | 144° |
| 2026-05-06 21:31 | 32.89972 | -97.03511 | 601 ft | 13 kts | 140° |
| 2026-05-06 21:31 | 32.89952 | -97.03395 | 600 ft | 15 kts | 89° |
| 2026-05-06 21:31 | 32.89931 | -97.03317 | 600 ft | 10 kts | 160° |
| 2026-05-06 21:31 | 32.89847 | -97.03317 | 601 ft | 17 kts | 180° |
| 2026-05-06 21:32 | 32.89687 | -97.03317 | 600 ft | 27 kts | 179° |
| 2026-05-06 21:32 | 32.89270 | -97.03319 | 601 ft | 32 kts | 180° |
| 2026-05-06 21:32 | 32.89043 | -97.03320 | 601 ft | 32 kts | 181° |
| 2026-05-06 21:33 | 32.88845 | -97.03322 | 601 ft | 23 kts | 180° |
| 2026-05-06 21:33 | 32.88709 | -97.03322 | 600 ft | 18 kts | 179° |
| 2026-05-06 21:33 | 32.88573 | -97.03322 | 601 ft | 19 kts | 180° |
| 2026-05-06 21:33 | 32.88481 | -97.03297 | 601 ft | 14 kts | 158° |
| 2026-05-06 21:34 | 32.88379 | -97.03288 | 601 ft | 16 kts | 181° |
| 2026-05-06 21:34 | 32.88259 | -97.03289 | 601 ft | 18 kts | 180° |
| 2026-05-06 21:34 | 32.88122 | -97.03290 | 600 ft | 21 kts | 180° |
| 2026-05-06 21:34 | 32.87990 | -97.03280 | 601 ft | 14 kts | 142° |
| 2026-05-06 21:35 | 32.87978 | -97.03180 | 600 ft | 13 kts | 90° |
| 2026-05-06 21:35 | 32.87977 | -97.03147 | 601 ft | 0 kts | 90° |
| 2026-05-06 21:37 | 32.87977 | -97.03131 | 601 ft | 5 kts | 90° |
| 2026-05-06 21:37 | 32.87977 | -97.03051 | 601 ft | 11 kts | 90° |
| 2026-05-06 21:38 | 32.88003 | -97.03007 | 601 ft | 4 kts | 2° |
| 2026-05-06 21:38 | 32.88004 | -97.03007 | 601 ft | 0 kts | 1° |
| 2026-05-06 21:39 | 32.88010 | -97.03007 | 601 ft | 6 kts | 1° |
| 2026-05-06 21:39 | 32.88239 | -97.03005 | 601 ft | 63 kts | 0° |
| 2026-05-06 21:40 | 32.88866 | -97.03004 | 601 ft | 115 kts | 0° |
| 2026-05-06 21:40 | 32.89807 | -97.02998 | 602 ft | 154 kts | 360° |
| 2026-05-06 21:40 | 32.90895 | -97.02987 | 1015 ft | 155 kts | 1° |
| 2026-05-06 21:40 | 32.92007 | -97.03000 | 1439 ft | 165 kts | 1° |
| 2026-05-06 21:41 | 32.93184 | -97.03003 | 1903 ft | 172 kts | 1° |
| 2026-05-06 21:41 | 32.94391 | -97.02978 | 2500 ft | 182 kts | 2° |
| 2026-05-06 21:41 | 32.95749 | -97.02936 | 2951 ft | 208 kts | 3° |
| 2026-05-06 21:41 | 32.97283 | -97.02886 | 3476 ft | 231 kts | 2° |
| 2026-05-06 21:42 | 32.98961 | -97.02828 | 4070 ft | 251 kts | 1° |
| 2026-05-06 21:42 | 33.00758 | -97.02763 | 4779 ft | 263 kts | 359° |
| 2026-05-06 21:42 | 33.02608 | -97.02696 | 5635 ft | 270 kts | 358° |
| 2026-05-06 21:42 | 33.04512 | -97.02552 | 6448 ft | 280 kts | 8° |
| 2026-05-06 21:43 | 33.06319 | -97.01588 | 7230 ft | 295 kts | 35° |
| 2026-05-06 21:43 | 33.07637 | -96.99681 | 7998 ft | 305 kts | 64° |
| 2026-05-06 21:43 | 33.08150 | -96.97223 | 8779 ft | 310 kts | 89° |
| 2026-05-06 21:43 | 33.08263 | -96.94630 | 9556 ft | 316 kts | 89° |
| 2026-05-06 21:44 | 33.08136 | -96.92020 | 10310 ft | 318 kts | 104° |
| 2026-05-06 21:44 | 33.07737 | -96.89364 | 10823 ft | 333 kts | 104° |
| 2026-05-06 21:44 | 33.07335 | -96.86592 | 11491 ft | 346 kts | 103° |
| 2026-05-06 21:44 | 33.06928 | -96.83743 | 12398 ft | 350 kts | 105° |
| 2026-05-06 21:45 | 33.06197 | -96.80975 | 13210 ft | 353 kts | 119° |
| 2026-05-06 21:45 | 33.05238 | -96.78258 | 14132 ft | 359 kts | 119° |
| 2026-05-06 21:45 | 33.04273 | -96.75483 | 14968 ft | 366 kts | 120° |
| 2026-05-06 21:45 | 33.03296 | -96.72653 | 15793 ft | 372 kts | 120° |
| 2026-05-06 21:46 | 33.02315 | -96.69804 | 16521 ft | 379 kts | 121° |
| 2026-05-06 21:46 | 33.01307 | -96.66875 | 17259 ft | 385 kts | 121° |
| 2026-05-06 21:46 | 33.00284 | -96.63905 | 17984 ft | 390 kts | 122° |
| 2026-05-06 21:46 | 32.99249 | -96.60897 | 18643 ft | 395 kts | 122° |
| 2026-05-06 21:47 | 32.98198 | -96.57844 | 19237 ft | 400 kts | 122° |
| 2026-05-06 21:47 | 32.97134 | -96.54762 | 19875 ft | 404 kts | 122° |
| 2026-05-06 21:47 | 32.96060 | -96.51650 | 20476 ft | 410 kts | 121° |
| 2026-05-06 21:47 | 32.94968 | -96.48491 | 21061 ft | 414 kts | 121° |
| 2026-05-06 21:48 | 32.93864 | -96.45302 | 21633 ft | 419 kts | 121° |
| 2026-05-06 21:48 | 32.92747 | -96.42080 | 22233 ft | 424 kts | 121° |
| 2026-05-06 21:48 | 32.91619 | -96.38823 | 22805 ft | 428 kts | 120° |
| 2026-05-06 21:48 | 32.90758 | -96.35367 | 23350 ft | 445 kts | 104° |
| 2026-05-06 21:49 | 32.90689 | -96.31646 | 23870 ft | 457 kts | 85° |
| 2026-05-06 21:49 | 32.91472 | -96.27957 | 24313 ft | 464 kts | 69° |
| 2026-05-06 21:49 | 32.92657 | -96.24368 | 24765 ft | 468 kts | 69° |
| 2026-05-06 21:49 | 32.93821 | -96.20735 | 25199 ft | 472 kts | 69° |
| 2026-05-06 21:50 | 32.95002 | -96.17076 | 25660 ft | 475 kts | 69° |
| 2026-05-06 21:50 | 32.96195 | -96.13386 | 26082 ft | 479 kts | 69° |
| 2026-05-06 21:50 | 32.97395 | -96.09673 | 26523 ft | 483 kts | 69° |
| 2026-05-06 21:50 | 32.98604 | -96.05930 | 26964 ft | 486 kts | 70° |
| 2026-05-06 21:51 | 32.99817 | -96.02168 | 27430 ft | 488 kts | 70° |
| 2026-05-06 21:51 | 33.01038 | -95.98377 | 27831 ft | 492 kts | 70° |
| 2026-05-06 21:51 | 33.02250 | -95.94612 | 28266 ft | 496 kts | 70° |
| 2026-05-06 21:51 | 33.03490 | -95.90753 | 28609 ft | 501 kts | 70° |
| 2026-05-06 21:52 | 33.04737 | -95.86870 | 29023 ft | 504 kts | 70° |
| 2026-05-06 21:52 | 33.05994 | -95.82958 | 29430 ft | 507 kts | 70° |
| 2026-05-06 21:52 | 33.07261 | -95.79016 | 29814 ft | 511 kts | 70° |
| 2026-05-06 21:52 | 33.08533 | -95.75053 | 30172 ft | 514 kts | 70° |
| 2026-05-06 21:53 | 33.09812 | -95.71062 | 30488 ft | 517 kts | 70° |
| 2026-05-06 21:53 | 33.11097 | -95.67049 | 30850 ft | 518 kts | 70° |
| 2026-05-06 21:53 | 33.12384 | -95.63024 | 31211 ft | 520 kts | 70° |
| 2026-05-06 21:53 | 33.13676 | -95.58977 | 31537 ft | 524 kts | 70° |
| 2026-05-06 21:54 | 33.14976 | -95.54903 | 31841 ft | 527 kts | 71° |
| 2026-05-06 21:54 | 33.16282 | -95.50800 | 32138 ft | 530 kts | 71° |
| 2026-05-06 21:54 | 33.17595 | -95.46671 | 32425 ft | 534 kts | 71° |
| 2026-05-06 21:54 | 33.18915 | -95.42518 | 32714 ft | 537 kts | 71° |
| 2026-05-06 21:55 | 33.20240 | -95.38340 | 32996 ft | 540 kts | 71° |
| 2026-05-06 21:55 | 33.21571 | -95.34138 | 33283 ft | 543 kts | 71° |
| 2026-05-06 21:55 | 33.22910 | -95.29908 | 33611 ft | 544 kts | 70° |
| 2026-05-06 21:55 | 33.24242 | -95.25689 | 34014 ft | 544 kts | 70° |
| 2026-05-06 21:56 | 33.25582 | -95.21442 | 34198 ft | 548 kts | 70° |
| 2026-05-06 21:56 | 33.26929 | -95.17167 | 34445 ft | 551 kts | 70° |
| 2026-05-06 21:56 | 33.28279 | -95.12876 | 34689 ft | 553 kts | 70° |
| 2026-05-06 21:56 | 33.29636 | -95.08557 | 34909 ft | 556 kts | 70° |
| 2026-05-06 21:57 | 33.30996 | -95.04222 | 35133 ft | 559 kts | 70° |
| 2026-05-06 21:57 | 33.32361 | -94.99864 | 35361 ft | 561 kts | 70° |
| 2026-05-06 21:57 | 33.33732 | -94.95479 | 35586 ft | 564 kts | 70° |
| 2026-05-06 21:57 | 33.35108 | -94.91075 | 35799 ft | 566 kts | 70° |
| 2026-05-06 21:58 | 33.36486 | -94.86658 | 36017 ft | 569 kts | 70° |
| 2026-05-06 21:58 | 33.37871 | -94.82209 | 36240 ft | 571 kts | 70° |
| 2026-05-06 21:58 | 33.39255 | -94.77760 | 36518 ft | 571 kts | 70° |
| 2026-05-06 21:58 | 33.40639 | -94.73302 | 36783 ft | 572 kts | 70° |
| 2026-05-06 21:59 | 33.42024 | -94.68838 | 37038 ft | 573 kts | 69° |
| 2026-05-06 21:59 | 33.43407 | -94.64371 | 37289 ft | 573 kts | 69° |
| 2026-05-06 21:59 | 33.44774 | -94.59949 | 37547 ft | 574 kts | 69° |
| 2026-05-06 21:59 | 33.46159 | -94.55464 | 37751 ft | 574 kts | 69° |
| 2026-05-06 22:00 | 33.47540 | -94.50983 | 38058 ft | 573 kts | 69° |
| 2026-05-06 22:00 | 33.48920 | -94.46500 | 38308 ft | 574 kts | 69° |
| 2026-05-06 22:00 | 33.50299 | -94.42014 | 38532 ft | 574 kts | 69° |
| 2026-05-06 22:00 | 33.51678 | -94.37522 | 38720 ft | 575 kts | 69° |
| 2026-05-06 22:01 | 33.53056 | -94.33026 | 38895 ft | 575 kts | 69° |
| 2026-05-06 22:01 | 33.54435 | -94.28522 | 38997 ft | 576 kts | 69° |
| 2026-05-06 22:01 | 33.57144 | -94.19447 | 38984 ft | 573 kts | 70° |
| 2026-05-06 22:02 | 33.59807 | -94.10512 | 39009 ft | 573 kts | 70° |
| 2026-05-06 22:02 | 33.62485 | -94.01504 | 39052 ft | 573 kts | 70° |
| 2026-05-06 22:03 | 33.65164 | -93.92466 | 39000 ft | 576 kts | 70° |
| 2026-05-06 22:03 | 33.67842 | -93.83403 | 38992 ft | 576 kts | 70° |
| 2026-05-06 22:04 | 33.70514 | -93.74331 | 38972 ft | 577 kts | 70° |
| 2026-05-06 22:04 | 33.73183 | -93.65238 | 38977 ft | 577 kts | 70° |
| 2026-05-06 22:05 | 33.75847 | -93.56138 | 38984 ft | 577 kts | 70° |
| 2026-05-06 22:05 | 33.78504 | -93.47033 | 38992 ft | 577 kts | 70° |
| 2026-05-06 22:06 | 33.81153 | -93.37926 | 38995 ft | 577 kts | 70° |
| 2026-05-06 22:06 | 33.83796 | -93.28810 | 38998 ft | 577 kts | 70° |
| 2026-05-06 22:07 | 33.86433 | -93.19687 | 39014 ft | 577 kts | 70° |
| 2026-05-06 22:07 | 33.89068 | -93.10559 | 39016 ft | 577 kts | 69° |
| 2026-05-06 22:08 | 33.92234 | -93.01709 | 39071 ft | 576 kts | 63° |
| 2026-05-06 22:08 | 33.95545 | -92.92902 | 39006 ft | 577 kts | 63° |
| 2026-05-06 22:09 | 33.98862 | -92.84079 | 39022 ft | 578 kts | 63° |
| 2026-05-06 22:09 | 34.02170 | -92.75253 | 39019 ft | 578 kts | 63° |
| 2026-05-06 22:10 | 34.05474 | -92.66415 | 38997 ft | 578 kts | 63° |
| 2026-05-06 22:10 | 34.08770 | -92.57576 | 39011 ft | 577 kts | 63° |
| 2026-05-06 22:11 | 34.12033 | -92.48799 | 39017 ft | 577 kts | 63° |
| 2026-05-06 22:11 | 34.15312 | -92.39956 | 39018 ft | 577 kts | 63° |
| 2026-05-06 22:12 | 34.18586 | -92.31105 | 39016 ft | 577 kts | 63° |
| 2026-05-06 22:12 | 34.21854 | -92.22245 | 39026 ft | 578 kts | 63° |
| 2026-05-06 22:13 | 34.25119 | -92.13367 | 39021 ft | 579 kts | 63° |
| 2026-05-06 22:13 | 34.28382 | -92.04472 | 39024 ft | 579 kts | 63° |
| 2026-05-06 22:14 | 34.31637 | -91.95575 | 39023 ft | 579 kts | 64° |
| 2026-05-06 22:14 | 34.34888 | -91.86665 | 39008 ft | 579 kts | 63° |
| 2026-05-06 22:15 | 34.38134 | -91.77742 | 39012 ft | 579 kts | 63° |
| 2026-05-06 22:15 | 34.41372 | -91.68814 | 39018 ft | 579 kts | 64° |
| 2026-05-06 22:16 | 34.44604 | -91.59882 | 39019 ft | 579 kts | 64° |
| 2026-05-06 22:16 | 34.47828 | -91.50945 | 39062 ft | 580 kts | 63° |
| 2026-05-06 22:17 | 34.51056 | -91.41974 | 39039 ft | 581 kts | 63° |
| 2026-05-06 22:17 | 34.53734 | -91.34509 | 39043 ft | 581 kts | 63° |
| 2026-05-06 22:18 | 34.56952 | -91.25517 | 39039 ft | 581 kts | 64° |
| 2026-05-06 22:18 | 34.60162 | -91.16524 | 39041 ft | 581 kts | 64° |
| 2026-05-06 22:19 | 34.63253 | -91.07842 | 39044 ft | 580 kts | 63° |
| 2026-05-06 22:19 | 34.66443 | -90.98853 | 39040 ft | 580 kts | 64° |
| 2026-05-06 22:20 | 34.69632 | -90.89842 | 39035 ft | 580 kts | 64° |
| 2026-05-06 22:20 | 34.72813 | -90.80828 | 39035 ft | 580 kts | 64° |
| 2026-05-06 22:21 | 34.75990 | -90.71802 | 39019 ft | 581 kts | 63° |
| 2026-05-06 22:21 | 34.79163 | -90.62759 | 39026 ft | 581 kts | 63° |
| 2026-05-06 22:22 | 34.82328 | -90.53711 | 39015 ft | 581 kts | 63° |
| 2026-05-06 22:22 | 34.85488 | -90.44655 | 39016 ft | 581 kts | 64° |
| 2026-05-06 22:23 | 34.88640 | -90.35594 | 39001 ft | 581 kts | 63° |
| 2026-05-06 22:23 | 34.91782 | -90.26539 | 39005 ft | 580 kts | 63° |
| 2026-05-06 22:24 | 34.94921 | -90.17469 | 39021 ft | 580 kts | 64° |
| 2026-05-06 22:24 | 34.98046 | -90.08415 | 38983 ft | 579 kts | 64° |
| 2026-05-06 22:25 | 35.01127 | -89.99387 | 39004 ft | 583 kts | 68° |
| 2026-05-06 22:25 | 35.02153 | -89.94608 | 38996 ft | 581 kts | 79° |
| 2026-05-06 22:25 | 35.02963 | -89.89765 | 38996 ft | 584 kts | 77° |
| 2026-05-06 22:26 | 35.04651 | -89.80086 | 38994 ft | 583 kts | 78° |
| 2026-05-06 22:26 | 35.06309 | -89.70386 | 38982 ft | 583 kts | 78° |
| 2026-05-06 22:27 | 35.07957 | -89.60694 | 39005 ft | 584 kts | 78° |
| 2026-05-06 22:27 | 35.09600 | -89.50987 | 39011 ft | 584 kts | 78° |
| 2026-05-06 22:28 | 35.11234 | -89.41281 | 39021 ft | 584 kts | 78° |
| 2026-05-06 22:28 | 35.12861 | -89.31567 | 39023 ft | 583 kts | 78° |
| 2026-05-06 22:29 | 35.14479 | -89.21858 | 39021 ft | 583 kts | 78° |
| 2026-05-06 22:29 | 35.16089 | -89.12150 | 39013 ft | 583 kts | 78° |
| 2026-05-06 22:30 | 35.17691 | -89.02432 | 39026 ft | 583 kts | 78° |
| 2026-05-06 22:30 | 35.19286 | -88.92709 | 39021 ft | 583 kts | 78° |
| 2026-05-06 22:31 | 35.20872 | -88.82996 | 39010 ft | 583 kts | 78° |
| 2026-05-06 22:31 | 35.22449 | -88.73276 | 39013 ft | 582 kts | 78° |
| 2026-05-06 22:32 | 35.24017 | -88.63565 | 39061 ft | 582 kts | 78° |
| 2026-05-06 22:32 | 35.25581 | -88.53825 | 39001 ft | 584 kts | 78° |
| 2026-05-06 22:33 | 35.27142 | -88.44059 | 39006 ft | 585 kts | 78° |
| 2026-05-06 22:33 | 35.28636 | -88.34649 | 39006 ft | 584 kts | 78° |
| 2026-05-06 22:34 | 35.30100 | -88.25392 | 39003 ft | 584 kts | 79° |
| 2026-05-06 22:34 | 35.31635 | -88.15627 | 39003 ft | 584 kts | 79° |
| 2026-05-06 22:35 | 35.33163 | -88.05853 | 38993 ft | 584 kts | 79° |
| 2026-05-06 22:35 | 35.34680 | -87.96098 | 39007 ft | 582 kts | 79° |
| 2026-05-06 22:36 | 35.36186 | -87.86359 | 39014 ft | 582 kts | 79° |
| 2026-05-06 22:36 | 35.37674 | -87.76681 | 39013 ft | 582 kts | 79° |
| 2026-05-06 22:37 | 35.39164 | -87.66939 | 39004 ft | 582 kts | 79° |
| 2026-05-06 22:37 | 35.40645 | -87.57199 | 39008 ft | 581 kts | 79° |
| 2026-05-06 22:38 | 35.42116 | -87.47468 | 39011 ft | 581 kts | 79° |
| 2026-05-06 22:38 | 35.43581 | -87.37726 | 39009 ft | 581 kts | 79° |
| 2026-05-06 22:39 | 35.45038 | -87.27985 | 39009 ft | 581 kts | 79° |
| 2026-05-06 22:39 | 35.46485 | -87.18241 | 39021 ft | 580 kts | 79° |
| 2026-05-06 22:40 | 35.47925 | -87.08497 | 39022 ft | 582 kts | 79° |
| 2026-05-06 22:40 | 35.49362 | -86.98722 | 39014 ft | 583 kts | 79° |
| 2026-05-06 22:41 | 35.51505 | -86.84027 | 39017 ft | 583 kts | 79° |
| 2026-05-06 22:42 | 35.52920 | -86.74248 | 39016 ft | 582 kts | 79° |
| 2026-05-06 22:42 | 35.54316 | -86.64554 | 39016 ft | 583 kts | 79° |
| 2026-05-06 22:43 | 35.55718 | -86.54751 | 38975 ft | 582 kts | 79° |
| 2026-05-06 22:43 | 35.57109 | -86.44967 | 38980 ft | 582 kts | 80° |
| 2026-05-06 22:44 | 35.58493 | -86.35178 | 38979 ft | 582 kts | 80° |
| 2026-05-06 22:44 | 35.59862 | -86.25435 | 38988 ft | 582 kts | 80° |
| 2026-05-06 22:45 | 35.61228 | -86.15655 | 38961 ft | 581 kts | 80° |
| 2026-05-06 22:45 | 35.62534 | -86.06235 | 38986 ft | 579 kts | 80° |
| 2026-05-06 22:46 | 35.63869 | -85.96562 | 38981 ft | 579 kts | 80° |
| 2026-05-06 22:46 | 35.65206 | -85.86814 | 38981 ft | 579 kts | 80° |
| 2026-05-06 22:47 | 35.66527 | -85.77118 | 38981 ft | 579 kts | 80° |
| 2026-05-06 22:47 | 35.67857 | -85.67293 | 39050 ft | 579 kts | 80° |
| 2026-05-06 22:48 | 35.69176 | -85.57489 | 38971 ft | 582 kts | 80° |
| 2026-05-06 22:48 | 35.70492 | -85.47653 | 38975 ft | 583 kts | 80° |
| 2026-05-06 22:49 | 35.71781 | -85.37945 | 38949 ft | 582 kts | 80° |
| 2026-05-06 22:49 | 35.73078 | -85.28121 | 38967 ft | 582 kts | 80° |
| 2026-05-06 22:50 | 35.74366 | -85.18293 | 38956 ft | 582 kts | 80° |
| 2026-05-06 22:50 | 35.75647 | -85.08463 | 38947 ft | 582 kts | 81° |
| 2026-05-06 22:51 | 35.76920 | -84.98632 | 38944 ft | 581 kts | 81° |
| 2026-05-06 22:51 | 35.78182 | -84.88818 | 38926 ft | 579 kts | 81° |
| 2026-05-06 22:52 | 35.79434 | -84.79012 | 38923 ft | 580 kts | 81° |
| 2026-05-06 22:52 | 35.80680 | -84.69193 | 38921 ft | 580 kts | 81° |
| 2026-05-06 22:53 | 35.81917 | -84.59376 | 38919 ft | 580 kts | 81° |
| 2026-05-06 22:53 | 35.83146 | -84.49557 | 38909 ft | 580 kts | 81° |
| 2026-05-06 22:54 | 35.84370 | -84.39737 | 38917 ft | 580 kts | 81° |
| 2026-05-06 22:54 | 35.85584 | -84.29917 | 38912 ft | 580 kts | 81° |
| 2026-05-06 22:55 | 35.86793 | -84.20089 | 38904 ft | 579 kts | 81° |
| 2026-05-06 22:55 | 35.87991 | -84.10274 | 38922 ft | 579 kts | 81° |
| 2026-05-06 22:56 | 35.89182 | -84.00460 | 38944 ft | 579 kts | 81° |
| 2026-05-06 22:56 | 35.90461 | -83.90727 | 38936 ft | 577 kts | 72° |
| 2026-05-06 22:56 | 35.91818 | -83.86127 | 38949 ft | 566 kts | 58° |
| 2026-05-06 22:57 | 35.93507 | -83.81735 | 38946 ft | 569 kts | 60° |
| 2026-05-06 22:57 | 35.96792 | -83.72853 | 38948 ft | 569 kts | 60° |
| 2026-05-06 22:58 | 36.00078 | -83.63967 | 38930 ft | 569 kts | 60° |
| 2026-05-06 22:58 | 36.03358 | -83.55071 | 38915 ft | 569 kts | 60° |
| 2026-05-06 22:59 | 36.06633 | -83.46168 | 38891 ft | 570 kts | 60° |
| 2026-05-06 22:59 | 36.08268 | -83.41711 | 38996 ft | 570 kts | 60° |
| 2026-05-06 22:59 | 36.09906 | -83.37242 | 38967 ft | 571 kts | 60° |
| 2026-05-06 23:00 | 36.13181 | -83.28286 | 38977 ft | 574 kts | 60° |
| 2026-05-06 23:00 | 36.16481 | -83.19232 | 38958 ft | 581 kts | 60° |
| 2026-05-06 23:01 | 36.19800 | -83.10104 | 38935 ft | 581 kts | 60° |
| 2026-05-06 23:01 | 36.23105 | -83.00984 | 38955 ft | 580 kts | 60° |
| 2026-05-06 23:02 | 36.26402 | -82.91862 | 38967 ft | 580 kts | 60° |
| 2026-05-06 23:02 | 36.29694 | -82.82729 | 38996 ft | 580 kts | 60° |
| 2026-05-06 23:03 | 36.32976 | -82.73593 | 38952 ft | 579 kts | 60° |
| 2026-05-06 23:03 | 36.36242 | -82.64475 | 38942 ft | 578 kts | 60° |
| 2026-05-06 23:04 | 36.39502 | -82.55349 | 38936 ft | 578 kts | 60° |
| 2026-05-06 23:04 | 36.42196 | -82.47787 | 38961 ft | 579 kts | 60° |
| 2026-05-06 23:05 | 36.45971 | -82.37158 | 38966 ft | 578 kts | 60° |
| 2026-05-06 23:05 | 36.48683 | -82.29499 | 38965 ft | 578 kts | 60° |
| 2026-05-06 23:06 | 36.51918 | -82.20335 | 38960 ft | 579 kts | 60° |
| 2026-05-06 23:06 | 36.55148 | -82.11161 | 38933 ft | 580 kts | 60° |
| 2026-05-06 23:07 | 36.58377 | -82.01964 | 38971 ft | 579 kts | 60° |
| 2026-05-06 23:07 | 36.61567 | -81.92856 | 38968 ft | 570 kts | 60° |
| 2026-05-06 23:08 | 36.64671 | -81.83860 | 38958 ft | 572 kts | 65° |
| 2026-05-06 23:08 | 36.67009 | -81.74282 | 38958 ft | 576 kts | 70° |
| 2026-05-06 23:08 | 36.68113 | -81.69569 | 38847 ft | 572 kts | 70° |
| 2026-05-06 23:09 | 36.69215 | -81.64841 | 38541 ft | 567 kts | 70° |
| 2026-05-06 23:09 | 36.70308 | -81.60145 | 38215 ft | 563 kts | 69° |
| 2026-05-06 23:09 | 36.71395 | -81.55463 | 37893 ft | 560 kts | 69° |
| 2026-05-06 23:09 | 36.72471 | -81.50815 | 37543 ft | 557 kts | 70° |
| 2026-05-06 23:10 | 36.73541 | -81.46192 | 37252 ft | 555 kts | 70° |
| 2026-05-06 23:10 | 36.74604 | -81.41584 | 36916 ft | 550 kts | 70° |
| 2026-05-06 23:10 | 36.75655 | -81.37023 | 36479 ft | 546 kts | 70° |
| 2026-05-06 23:10 | 36.76701 | -81.32467 | 35883 ft | 547 kts | 71° |
| 2026-05-06 23:11 | 36.77747 | -81.27908 | 35278 ft | 547 kts | 71° |
| 2026-05-06 23:11 | 36.78793 | -81.23344 | 34786 ft | 545 kts | 71° |
| 2026-05-06 23:11 | 36.79829 | -81.18811 | 34341 ft | 542 kts | 71° |
| 2026-05-06 23:11 | 36.80858 | -81.14300 | 33841 ft | 540 kts | 72° |
| 2026-05-06 23:12 | 36.81882 | -81.09803 | 33267 ft | 538 kts | 72° |
| 2026-05-06 23:12 | 36.82899 | -81.05328 | 32765 ft | 534 kts | 72° |
| 2026-05-06 23:12 | 36.83907 | -81.00884 | 32322 ft | 529 kts | 72° |
| 2026-05-06 23:12 | 36.84904 | -80.96481 | 31877 ft | 525 kts | 73° |
| 2026-05-06 23:13 | 36.85891 | -80.92113 | 31420 ft | 521 kts | 73° |
| 2026-05-06 23:13 | 36.86870 | -80.87773 | 30959 ft | 517 kts | 73° |
| 2026-05-06 23:13 | 36.87838 | -80.83473 | 30512 ft | 513 kts | 73° |
| 2026-05-06 23:13 | 36.88800 | -80.79192 | 30088 ft | 510 kts | 74° |
| 2026-05-06 23:14 | 36.89754 | -80.74941 | 29570 ft | 507 kts | 74° |
| 2026-05-06 23:14 | 36.90699 | -80.70721 | 29073 ft | 502 kts | 74° |
| 2026-05-06 23:14 | 36.91633 | -80.66546 | 28672 ft | 497 kts | 74° |
| 2026-05-06 23:14 | 36.92556 | -80.62406 | 28211 ft | 492 kts | 74° |
| 2026-05-06 23:15 | 36.93468 | -80.58315 | 27803 ft | 487 kts | 74° |
| 2026-05-06 23:15 | 36.94372 | -80.54251 | 27387 ft | 483 kts | 73° |
| 2026-05-06 23:15 | 36.95261 | -80.50249 | 26995 ft | 477 kts | 74° |
| 2026-05-06 23:15 | 36.96110 | -80.46265 | 26707 ft | 470 kts | 74° |
| 2026-05-06 23:16 | 36.96938 | -80.42370 | 26479 ft | 462 kts | 74° |
| 2026-05-06 23:16 | 36.97762 | -80.38495 | 26230 ft | 462 kts | 74° |
| 2026-05-06 23:16 | 36.98589 | -80.34609 | 25988 ft | 463 kts | 74° |
| 2026-05-06 23:16 | 36.99414 | -80.30724 | 25723 ft | 461 kts | 73° |
| 2026-05-06 23:17 | 37.00235 | -80.26850 | 25469 ft | 460 kts | 73° |
| 2026-05-06 23:17 | 37.01051 | -80.22993 | 25212 ft | 458 kts | 73° |
| 2026-05-06 23:17 | 37.01860 | -80.19149 | 24988 ft | 456 kts | 75° |
| 2026-05-06 23:17 | 37.02269 | -80.15243 | 24919 ft | 454 kts | 94° |
| 2026-05-06 23:18 | 37.01625 | -80.11432 | 24922 ft | 444 kts | 118° |
| 2026-05-06 23:18 | 37.00027 | -80.08221 | 24926 ft | 430 kts | 138° |
| 2026-05-06 23:18 | 36.98090 | -80.05335 | 24896 ft | 443 kts | 132° |
| 2026-05-06 23:18 | 36.96295 | -80.02125 | 24927 ft | 459 kts | 130° |
| 2026-05-06 23:19 | 36.94498 | -79.98743 | 24907 ft | 475 kts | 129° |
| 2026-05-06 23:19 | 36.92675 | -79.95230 | 24903 ft | 488 kts | 128° |
| 2026-05-06 23:19 | 36.90827 | -79.91617 | 24902 ft | 499 kts | 128° |
| 2026-05-06 23:19 | 36.88950 | -79.87936 | 24906 ft | 506 kts | 128° |
| 2026-05-06 23:20 | 36.87052 | -79.84224 | 24692 ft | 507 kts | 128° |
| 2026-05-06 23:20 | 36.85156 | -79.80526 | 23931 ft | 505 kts | 127° |
| 2026-05-06 23:20 | 36.83265 | -79.76841 | 23332 ft | 501 kts | 127° |
| 2026-05-06 23:20 | 36.81399 | -79.73228 | 22890 ft | 491 kts | 127° |
| 2026-05-06 23:21 | 36.79551 | -79.69648 | 22434 ft | 489 kts | 127° |
| 2026-05-06 23:21 | 36.77717 | -79.66092 | 21956 ft | 486 kts | 127° |
| 2026-05-06 23:21 | 36.75893 | -79.62562 | 21543 ft | 482 kts | 127° |
| 2026-05-06 23:21 | 36.74080 | -79.59057 | 21108 ft | 479 kts | 127° |
| 2026-05-06 23:22 | 36.72278 | -79.55578 | 20659 ft | 476 kts | 127° |
| 2026-05-06 23:22 | 36.70488 | -79.52123 | 20237 ft | 473 kts | 127° |
| 2026-05-06 23:22 | 36.68705 | -79.48686 | 19810 ft | 471 kts | 127° |
| 2026-05-06 23:22 | 36.66932 | -79.45271 | 19406 ft | 468 kts | 127° |
| 2026-05-06 23:23 | 36.65170 | -79.41880 | 18976 ft | 466 kts | 127° |
| 2026-05-06 23:23 | 36.63413 | -79.38503 | 18552 ft | 463 kts | 127° |
| 2026-05-06 23:23 | 36.61666 | -79.35148 | 18101 ft | 461 kts | 126° |
| 2026-05-06 23:23 | 36.59926 | -79.31809 | 17626 ft | 458 kts | 126° |
| 2026-05-06 23:24 | 36.58201 | -79.28501 | 17181 ft | 453 kts | 126° |
| 2026-05-06 23:24 | 36.56513 | -79.25270 | 16753 ft | 449 kts | 126° |
| 2026-05-06 23:24 | 36.54799 | -79.21989 | 16292 ft | 444 kts | 126° |
| 2026-05-06 23:24 | 36.53120 | -79.18782 | 15870 ft | 440 kts | 126° |
| 2026-05-06 23:25 | 36.51482 | -79.15654 | 15466 ft | 436 kts | 126° |
| 2026-05-06 23:25 | 36.49838 | -79.12517 | 15060 ft | 431 kts | 126° |
| 2026-05-06 23:25 | 36.48210 | -79.09411 | 14648 ft | 427 kts | 126° |
| 2026-05-06 23:25 | 36.46595 | -79.06338 | 14236 ft | 422 kts | 126° |
| 2026-05-06 23:26 | 36.45002 | -79.03306 | 13830 ft | 417 kts | 126° |
| 2026-05-06 23:26 | 36.43428 | -79.00315 | 13380 ft | 411 kts | 126° |
| 2026-05-06 23:26 | 36.41882 | -78.97377 | 12763 ft | 402 kts | 126° |
| 2026-05-06 23:26 | 36.40370 | -78.94506 | 12152 ft | 393 kts | 127° |
| 2026-05-06 23:27 | 36.38708 | -78.91893 | 11520 ft | 380 kts | 139° |
| 2026-05-06 23:27 | 36.36860 | -78.89610 | 10986 ft | 370 kts | 139° |
| 2026-05-06 23:27 | 36.35069 | -78.87361 | 10472 ft | 362 kts | 139° |
| 2026-05-06 23:27 | 36.33327 | -78.85159 | 9948 ft | 353 kts | 139° |
| 2026-05-06 23:28 | 36.31630 | -78.83006 | 9366 ft | 344 kts | 139° |
| 2026-05-06 23:28 | 36.29979 | -78.80916 | 8841 ft | 334 kts | 140° |
| 2026-05-06 23:28 | 36.28374 | -78.78901 | 8434 ft | 322 kts | 139° |
| 2026-05-06 23:28 | 36.26836 | -78.76951 | 8047 ft | 311 kts | 139° |
| 2026-05-06 23:29 | 36.25346 | -78.75063 | 7679 ft | 301 kts | 139° |
| 2026-05-06 23:29 | 36.23905 | -78.73236 | 7310 ft | 292 kts | 139° |
| 2026-05-06 23:29 | 36.22504 | -78.71462 | 6966 ft | 284 kts | 139° |
| 2026-05-06 23:29 | 36.21144 | -78.69741 | 6617 ft | 276 kts | 139° |
| 2026-05-06 23:30 | 36.19819 | -78.68065 | 6284 ft | 268 kts | 140° |
| 2026-05-06 23:30 | 36.18541 | -78.66430 | 6004 ft | 258 kts | 139° |
| 2026-05-06 23:30 | 36.17329 | -78.64854 | 5979 ft | 250 kts | 139° |
| 2026-05-06 23:30 | 36.16133 | -78.63298 | 5983 ft | 249 kts | 139° |
| 2026-05-06 23:31 | 36.14939 | -78.61743 | 5979 ft | 250 kts | 139° |
| 2026-05-06 23:31 | 36.13743 | -78.60186 | 5832 ft | 248 kts | 139° |
| 2026-05-06 23:31 | 36.12557 | -78.58664 | 5635 ft | 243 kts | 144° |
| 2026-05-06 23:31 | 36.11152 | -78.57698 | 5399 ft | 224 kts | 175° |
| 2026-05-06 23:32 | 36.09662 | -78.57622 | 5207 ft | 209 kts | 190° |
| 2026-05-06 23:32 | 36.08213 | -78.57741 | 5103 ft | 209 kts | 190° |
| 2026-05-06 23:32 | 36.06764 | -78.57866 | 5023 ft | 208 kts | 190° |
| 2026-05-06 23:32 | 36.05405 | -78.58293 | 4970 ft | 197 kts | 215° |
| 2026-05-06 23:33 | 36.04342 | -78.59324 | 4983 ft | 195 kts | 226° |
| 2026-05-06 23:33 | 36.03352 | -78.60486 | 4863 ft | 196 kts | 227° |
| 2026-05-06 23:33 | 36.02380 | -78.61676 | 4662 ft | 197 kts | 228° |
| 2026-05-06 23:33 | 36.01409 | -78.62876 | 4377 ft | 198 kts | 227° |
| 2026-05-06 23:34 | 36.00437 | -78.64083 | 4095 ft | 198 kts | 227° |
| 2026-05-06 23:34 | 35.99468 | -78.65287 | 3814 ft | 198 kts | 227° |
| 2026-05-06 23:34 | 35.98489 | -78.66504 | 3420 ft | 202 kts | 226° |
| 2026-05-06 23:34 | 35.97481 | -78.67757 | 3010 ft | 209 kts | 227° |
| 2026-05-06 23:35 | 35.96446 | -78.69043 | 2576 ft | 209 kts | 227° |
| 2026-05-06 23:35 | 35.95451 | -78.70277 | 2142 ft | 196 kts | 227° |
| 2026-05-06 23:35 | 35.94541 | -78.71406 | 1862 ft | 172 kts | 228° |
| 2026-05-06 23:35 | 35.93759 | -78.72376 | 1653 ft | 147 kts | 228° |
| 2026-05-06 23:36 | 35.93075 | -78.73230 | 1431 ft | 136 kts | 226° |
| 2026-05-06 23:36 | 35.92411 | -78.74054 | 1257 ft | 135 kts | 226° |
| 2026-05-06 23:36 | 35.91751 | -78.74871 | 1088 ft | 134 kts | 227° |
| 2026-05-06 23:36 | 35.91089 | -78.75701 | 949 ft | 138 kts | 227° |
| 2026-05-06 23:37 | 35.90406 | -78.76555 | 789 ft | 138 kts | 222° |
| 2026-05-06 23:37 | 35.89723 | -78.77383 | 565 ft | 137 kts | 225° |
| 2026-05-06 23:37 | 35.89080 | -78.78181 | 424 ft | 121 kts | 225° |
| 2026-05-06 23:37 | 35.88603 | -78.78771 | 430 ft | 75 kts | 225° |
| 2026-05-06 23:38 | 35.88370 | -78.79049 | 423 ft | 24 kts | 214° |
| 2026-05-06 23:38 | 35.88266 | -78.79057 | 426 ft | 7 kts | 141° |
| 2026-05-06 23:38 | 35.88248 | -78.79035 | 430 ft | 0 kts | 134° |
| 2026-05-06 23:39 | 35.88247 | -78.79034 | 430 ft | 1 kts | 138° |
| 2026-05-06 23:39 | 35.88230 | -78.79034 | 421 ft | 0 kts | 205° |
| 2026-05-06 23:40 | 35.88225 | -78.79039 | 424 ft | 3 kts | 225° |
| 2026-05-06 23:40 | 35.88176 | -78.79105 | 430 ft | 17 kts | 225° |
| 2026-05-06 23:40 | 35.88087 | -78.79215 | 434 ft | 20 kts | 225° |
| 2026-05-06 23:41 | 35.87985 | -78.79340 | 432 ft | 21 kts | 224° |
| 2026-05-06 23:41 | 35.87881 | -78.79471 | 428 ft | 20 kts | 226° |
| 2026-05-06 23:41 | 35.87806 | -78.79560 | 428 ft | 6 kts | 225° |
| 2026-05-06 23:41 | 35.87794 | -78.79575 | 425 ft | 2 kts | 226° |
| 2026-05-06 23:42 | 35.87760 | -78.79620 | 428 ft | 13 kts | 225° |
| 2026-05-06 23:42 | 35.87681 | -78.79669 | 426 ft | 11 kts | 174° |
| 2026-05-06 23:42 | 35.87679 | -78.79616 | 417 ft | 9 kts | 47° |
| 2026-05-06 23:42 | 35.87730 | -78.79551 | 428 ft | 14 kts | 44° |
| 2026-05-06 23:43 | 35.87805 | -78.79460 | 425 ft | 15 kts | 45° |
| 2026-05-06 23:43 | 35.87879 | -78.79368 | 425 ft | 14 kts | 45° |
| 2026-05-06 23:43 | 35.87897 | -78.79309 | 428 ft | 4 kts | 125° |
| 2026-05-06 23:43 | 35.87880 | -78.79281 | 418 ft | 4 kts | 127° |
| 2026-05-06 23:44 | 35.87872 | -78.79268 | 423 ft | 0 kts | 127° |